sensor_id;sensor_type;location;lat;lon;timestamp;temperature;humidity
25302;DHT22;13243;50.888;4.724;2023-07-16T00:02:18;19.10;99.90
25302;DHT22;13243;50.888;4.724;2023-07-16T00:07:20;19.00;99.90
25302;DHT22;13243;50.888;4.724;2023-07-16T00:12:21;18.90;99.90
25302;DHT22;13243;50.888;4.724;2023-07-16T00:17:23;18.80;99.90
25302;DHT22;13243;50.888;4.724;2023-07-16T00:22:25;18.80;99.90
25302;DHT22;13243;50.888;4.724;2023-07-16T00:27:27;18.80;99.90
25302;DHT22;13243;50.888;4.724;2023-07-16T00:32:29;18.70;99.90
25302;DHT22;13243;50.888;4.724;2023-07-16T00:37:32;18.60;99.90
25302;DHT22;13243;50.888;4.724;2023-07-16T00:42:34;18.50;99.90
25302;DHT22;13243;50.888;4.724;2023-07-16T00:47:36;18.60;99.90
25302;DHT22;13243;50.888;4.724;2023-07-16T00:52:39;18.50;99.90
25302;DHT22;13243;50.888;4.724;2023-07-16T00:57:41;18.40;99.90
25302;DHT22;13243;50.888;4.724;2023-07-16T01:02:43;18.30;99.90
25302;DHT22;13243;50.888;4.724;2023-07-16T01:07:54;18.30;99.90
25302;DHT22;13243;50.888;4.724;2023-07-16T01:12:57;18.10;99.90
25302;DHT22;13243;50.888;4.724;2023-07-16T01:18:00;18.10;99.90
25302;DHT22;13243;50.888;4.724;2023-07-16T01:33:41;18.00;99.90
25302;DHT22;13243;50.888;4.724;2023-07-16T01:38:44;18.00;99.90
25302;DHT22;13243;50.888;4.724;2023-07-16T01:43:46;17.90;99.90
25302;DHT22;13243;50.888;4.724;2023-07-16T01:48:48;17.90;99.90
25302;DHT22;13243;50.888;4.724;2023-07-16T01:53:51;17.70;99.90
25302;DHT22;13243;50.888;4.724;2023-07-16T01:58:52;17.70;99.90
25302;DHT22;13243;50.888;4.724;2023-07-16T02:03:54;17.60;99.90
25302;DHT22;13243;50.888;4.724;2023-07-16T02:08:56;17.60;99.90
25302;DHT22;13243;50.888;4.724;2023-07-16T02:13:58;17.60;99.90
25302;DHT22;13243;50.888;4.724;2023-07-16T02:19:00;17.50;99.90
25302;DHT22;13243;50.888;4.724;2023-07-16T02:24:02;17.50;99.90
25302;DHT22;13243;50.888;4.724;2023-07-16T02:29:04;17.40;99.90
25302;DHT22;13243;50.888;4.724;2023-07-16T02:34:10;17.30;99.90
25302;DHT22;13243;50.888;4.724;2023-07-16T02:39:12;17.20;99.90
25302;DHT22;13243;50.888;4.724;2023-07-16T02:44:14;17.20;99.90
25302;DHT22;13243;50.888;4.724;2023-07-16T02:49:16;17.20;99.90
25302;DHT22;13243;50.888;4.724;2023-07-16T02:54:17;17.10;99.90
25302;DHT22;13243;50.888;4.724;2023-07-16T02:59:19;17.10;99.90
25302;DHT22;13243;50.888;4.724;2023-07-16T03:04:21;17.00;99.90
25302;DHT22;13243;50.888;4.724;2023-07-16T03:09:23;16.90;99.90
25302;DHT22;13243;50.888;4.724;2023-07-16T03:14:25;16.90;99.90
25302;DHT22;13243;50.888;4.724;2023-07-16T03:19:27;16.80;99.90
25302;DHT22;13243;50.888;4.724;2023-07-16T03:24:29;16.80;99.90
25302;DHT22;13243;50.888;4.724;2023-07-16T03:29:35;16.70;99.90
25302;DHT22;13243;50.888;4.724;2023-07-16T03:34:37;16.50;99.90
25302;DHT22;13243;50.888;4.724;2023-07-16T03:39:39;16.60;99.90
25302;DHT22;13243;50.888;4.724;2023-07-16T03:44:41;16.50;99.90
25302;DHT22;13243;50.888;4.724;2023-07-16T03:49:43;16.50;99.90
25302;DHT22;13243;50.888;4.724;2023-07-16T03:54:45;16.40;99.90
25302;DHT22;13243;50.888;4.724;2023-07-16T03:59:46;16.40;99.90
25302;DHT22;13243;50.888;4.724;2023-07-16T04:04:48;16.40;99.90
25302;DHT22;13243;50.888;4.724;2023-07-16T04:09:51;16.40;99.90
25302;DHT22;13243;50.888;4.724;2023-07-16T04:14:57;16.40;99.90
25302;DHT22;13243;50.888;4.724;2023-07-16T04:19:59;16.50;99.90
25302;DHT22;13243;50.888;4.724;2023-07-16T04:25:01;16.50;99.90
25302;DHT22;13243;50.888;4.724;2023-07-16T04:30:03;16.40;99.90
25302;DHT22;13243;50.888;4.724;2023-07-16T04:35:06;16.60;99.90
25302;DHT22;13243;50.888;4.724;2023-07-16T04:40:08;16.50;99.90
25302;DHT22;13243;50.888;4.724;2023-07-16T04:45:11;16.50;99.90
25302;DHT22;13243;50.888;4.724;2023-07-16T04:50:13;16.50;99.90
25302;DHT22;13243;50.888;4.724;2023-07-16T04:55:15;16.50;99.90
25302;DHT22;13243;50.888;4.724;2023-07-16T05:00:17;16.60;99.90
25302;DHT22;13243;50.888;4.724;2023-07-16T05:05:19;16.70;99.90
25302;DHT22;13243;50.888;4.724;2023-07-16T05:10:21;16.60;99.90
25302;DHT22;13243;50.888;4.724;2023-07-16T05:15:23;16.70;99.90
25302;DHT22;13243;50.888;4.724;2023-07-16T05:20:24;16.70;99.90
25302;DHT22;13243;50.888;4.724;2023-07-16T05:25:26;16.70;99.90
25302;DHT22;13243;50.888;4.724;2023-07-16T05:30:32;16.90;99.90
25302;DHT22;13243;50.888;4.724;2023-07-16T05:35:34;16.90;99.90
25302;DHT22;13243;50.888;4.724;2023-07-16T05:40:36;16.90;99.90
25302;DHT22;13243;50.888;4.724;2023-07-16T05:45:38;16.90;99.90
25302;DHT22;13243;50.888;4.724;2023-07-16T05:50:44;17.00;99.90
25302;DHT22;13243;50.888;4.724;2023-07-16T05:55:46;17.10;99.90
25302;DHT22;13243;50.888;4.724;2023-07-16T06:00:48;17.20;99.90
25302;DHT22;13243;50.888;4.724;2023-07-16T06:05:50;17.20;99.90
25302;DHT22;13243;50.888;4.724;2023-07-16T06:10:52;17.30;99.90
25302;DHT22;13243;50.888;4.724;2023-07-16T06:15:54;17.40;99.90
25302;DHT22;13243;50.888;4.724;2023-07-16T06:20:56;17.50;99.90
25302;DHT22;13243;50.888;4.724;2023-07-16T06:25:58;17.50;99.90
25302;DHT22;13243;50.888;4.724;2023-07-16T06:31:00;17.60;99.90
25302;DHT22;13243;50.888;4.724;2023-07-16T06:36:02;17.70;99.90
25302;DHT22;13243;50.888;4.724;2023-07-16T06:41:04;17.70;99.90
25302;DHT22;13243;50.888;4.724;2023-07-16T06:46:06;17.80;99.90
25302;DHT22;13243;50.888;4.724;2023-07-16T06:51:07;17.80;99.90
25302;DHT22;13243;50.888;4.724;2023-07-16T06:56:09;18.00;99.90
25302;DHT22;13243;50.888;4.724;2023-07-16T07:01:11;18.00;99.90
25302;DHT22;13243;50.888;4.724;2023-07-16T07:06:13;18.00;99.90
25302;DHT22;13243;50.888;4.724;2023-07-16T07:11:15;18.20;99.90
25302;DHT22;13243;50.888;4.724;2023-07-16T07:16:17;18.40;99.90
25302;DHT22;13243;50.888;4.724;2023-07-16T07:21:20;18.40;99.90
25302;DHT22;13243;50.888;4.724;2023-07-16T07:26:22;18.50;99.90
25302;DHT22;13243;50.888;4.724;2023-07-16T07:31:24;18.50;99.90
25302;DHT22;13243;50.888;4.724;2023-07-16T07:36:26;18.70;99.90
25302;DHT22;13243;50.888;4.724;2023-07-16T07:41:27;19.10;99.90
25302;DHT22;13243;50.888;4.724;2023-07-16T07:46:29;19.00;99.90
25302;DHT22;13243;50.888;4.724;2023-07-16T07:51:31;19.10;99.90
25302;DHT22;13243;50.888;4.724;2023-07-16T07:56:33;19.10;99.90
25302;DHT22;13243;50.888;4.724;2023-07-16T08:01:35;19.20;99.90
25302;DHT22;13243;50.888;4.724;2023-07-16T08:06:37;19.40;99.90
25302;DHT22;13243;50.888;4.724;2023-07-16T08:11:39;19.50;99.90
25302;DHT22;13243;50.888;4.724;2023-07-16T08:16:41;19.50;99.90
25302;DHT22;13243;50.888;4.724;2023-07-16T08:21:43;20.00;99.90
25302;DHT22;13243;50.888;4.724;2023-07-16T08:26:45;20.40;99.90
25302;DHT22;13243;50.888;4.724;2023-07-16T08:31:47;20.20;99.90
25302;DHT22;13243;50.888;4.724;2023-07-16T08:36:49;20.30;99.90
25302;DHT22;13243;50.888;4.724;2023-07-16T08:41:51;20.50;99.90
25302;DHT22;13243;50.888;4.724;2023-07-16T08:46:53;20.70;99.90
25302;DHT22;13243;50.888;4.724;2023-07-16T08:51:56;20.50;99.90
25302;DHT22;13243;50.888;4.724;2023-07-16T08:56:58;20.80;99.90
25302;DHT22;13243;50.888;4.724;2023-07-16T09:02:01;20.80;99.90
25302;DHT22;13243;50.888;4.724;2023-07-16T09:07:04;20.50;99.90
25302;DHT22;13243;50.888;4.724;2023-07-16T09:12:06;20.40;99.90
25302;DHT22;13243;50.888;4.724;2023-07-16T09:17:08;21.00;99.90
25302;DHT22;13243;50.888;4.724;2023-07-16T09:22:10;21.20;99.90
25302;DHT22;13243;50.888;4.724;2023-07-16T09:27:12;21.50;99.90
25302;DHT22;13243;50.888;4.724;2023-07-16T09:32:14;21.20;99.90
25302;DHT22;13243;50.888;4.724;2023-07-16T09:37:18;20.90;99.90
25302;DHT22;13243;50.888;4.724;2023-07-16T09:42:20;21.20;99.90
25302;DHT22;13243;50.888;4.724;2023-07-16T09:47:26;21.20;99.90
25302;DHT22;13243;50.888;4.724;2023-07-16T09:52:28;20.80;99.90
25302;DHT22;13243;50.888;4.724;2023-07-16T09:57:35;21.00;99.90
25302;DHT22;13243;50.888;4.724;2023-07-16T10:02:37;21.30;99.90
25302;DHT22;13243;50.888;4.724;2023-07-16T10:07:40;21.00;99.90
25302;DHT22;13243;50.888;4.724;2023-07-16T10:12:42;21.10;99.90
25302;DHT22;13243;50.888;4.724;2023-07-16T10:17:50;21.50;99.90
25302;DHT22;13243;50.888;4.724;2023-07-16T10:22:53;21.50;99.90
25302;DHT22;13243;50.888;4.724;2023-07-16T10:27:55;21.90;99.90
25302;DHT22;13243;50.888;4.724;2023-07-16T10:32:57;22.40;99.90
25302;DHT22;13243;50.888;4.724;2023-07-16T10:37:59;22.20;99.90
25302;DHT22;13243;50.888;4.724;2023-07-16T10:43:01;21.30;99.90
25302;DHT22;13243;50.888;4.724;2023-07-16T10:48:03;21.30;99.90
25302;DHT22;13243;50.888;4.724;2023-07-16T10:53:05;21.00;99.90
25302;DHT22;13243;50.888;4.724;2023-07-16T10:58:07;20.80;99.90
25302;DHT22;13243;50.888;4.724;2023-07-16T11:03:09;20.80;99.90
25302;DHT22;13243;50.888;4.724;2023-07-16T11:08:24;21.00;99.90
25302;DHT22;13243;50.888;4.724;2023-07-16T11:13:27;20.70;99.90
25302;DHT22;13243;50.888;4.724;2023-07-16T11:18:31;21.00;99.90
25302;DHT22;13243;50.888;4.724;2023-07-16T11:23:36;21.30;99.90
25302;DHT22;13243;50.888;4.724;2023-07-16T11:28:39;21.40;99.90
25302;DHT22;13243;50.888;4.724;2023-07-16T11:33:45;21.20;99.90
25302;DHT22;13243;50.888;4.724;2023-07-16T11:38:48;21.30;99.90
25302;DHT22;13243;50.888;4.724;2023-07-16T11:43:50;21.10;99.90
25302;DHT22;13243;50.888;4.724;2023-07-16T11:48:52;21.20;99.90
25302;DHT22;13243;50.888;4.724;2023-07-16T11:53:56;21.70;99.90
25302;DHT22;13243;50.888;4.724;2023-07-16T11:58:58;22.20;99.90
25302;DHT22;13243;50.888;4.724;2023-07-16T12:04:00;22.20;99.90
25302;DHT22;13243;50.888;4.724;2023-07-16T12:09:02;22.50;99.90
25302;DHT22;13243;50.888;4.724;2023-07-16T12:14:05;22.40;99.90
25302;DHT22;13243;50.888;4.724;2023-07-16T12:19:09;21.80;99.90
25302;DHT22;13243;50.888;4.724;2023-07-16T12:24:11;22.20;99.90
25302;DHT22;13243;50.888;4.724;2023-07-16T12:29:16;22.40;99.90
25302;DHT22;13243;50.888;4.724;2023-07-16T12:34:18;22.60;99.90
25302;DHT22;13243;50.888;4.724;2023-07-16T12:39:19;22.10;99.90
25302;DHT22;13243;50.888;4.724;2023-07-16T12:44:21;22.70;99.90
25302;DHT22;13243;50.888;4.724;2023-07-16T12:49:23;22.70;99.90
25302;DHT22;13243;50.888;4.724;2023-07-16T12:54:25;23.10;99.90
25302;DHT22;13243;50.888;4.724;2023-07-16T12:59:27;23.30;99.90
25302;DHT22;13243;50.888;4.724;2023-07-16T13:04:29;23.30;99.90
25302;DHT22;13243;50.888;4.724;2023-07-16T13:09:31;22.90;99.90
25302;DHT22;13243;50.888;4.724;2023-07-16T13:14:33;23.30;99.90
25302;DHT22;13243;50.888;4.724;2023-07-16T13:19:35;23.40;99.90
25302;DHT22;13243;50.888;4.724;2023-07-16T13:24:37;23.20;99.90
25302;DHT22;13243;50.888;4.724;2023-07-16T13:29:39;23.40;99.90
25302;DHT22;13243;50.888;4.724;2023-07-16T13:34:41;23.30;99.90
25302;DHT22;13243;50.888;4.724;2023-07-16T13:39:42;23.70;99.90
25302;DHT22;13243;50.888;4.724;2023-07-16T13:44:44;23.80;99.90
25302;DHT22;13243;50.888;4.724;2023-07-16T13:49:46;24.00;99.90
25302;DHT22;13243;50.888;4.724;2023-07-16T13:54:48;24.70;99.90
25302;DHT22;13243;50.888;4.724;2023-07-16T13:59:50;24.70;99.90
25302;DHT22;13243;50.888;4.724;2023-07-16T14:04:52;23.20;99.90
25302;DHT22;13243;50.888;4.724;2023-07-16T14:09:54;23.10;99.90
25302;DHT22;13243;50.888;4.724;2023-07-16T14:14:56;22.90;99.90
25302;DHT22;13243;50.888;4.724;2023-07-16T14:19:58;22.70;99.90
25302;DHT22;13243;50.888;4.724;2023-07-16T14:25:00;22.90;99.90
25302;DHT22;13243;50.888;4.724;2023-07-16T14:30:02;23.50;99.90
25302;DHT22;13243;50.888;4.724;2023-07-16T14:35:07;24.10;99.90
25302;DHT22;13243;50.888;4.724;2023-07-16T14:40:26;24.10;99.90
25302;DHT22;13243;50.888;4.724;2023-07-16T14:45:28;24.30;99.90
25302;DHT22;13243;50.888;4.724;2023-07-16T14:50:30;24.10;99.90
25302;DHT22;13243;50.888;4.724;2023-07-16T14:55:33;24.50;99.90
25302;DHT22;13243;50.888;4.724;2023-07-16T15:00:35;24.20;99.90
25302;DHT22;13243;50.888;4.724;2023-07-16T15:05:37;24.90;99.90
25302;DHT22;13243;50.888;4.724;2023-07-16T15:10:39;24.90;99.90
25302;DHT22;13243;50.888;4.724;2023-07-16T15:15:50;24.70;99.90
25302;DHT22;13243;50.888;4.724;2023-07-16T15:21:00;24.70;99.90
25302;DHT22;13243;50.888;4.724;2023-07-16T15:26:04;24.20;99.90
25302;DHT22;13243;50.888;4.724;2023-07-16T15:31:12;23.60;99.90
25302;DHT22;13243;50.888;4.724;2023-07-16T15:36:14;23.50;99.90
25302;DHT22;13243;50.888;4.724;2023-07-16T15:41:18;23.20;99.90
25302;DHT22;13243;50.888;4.724;2023-07-16T15:46:28;23.10;99.90
25302;DHT22;13243;50.888;4.724;2023-07-16T15:51:30;23.00;99.90
25302;DHT22;13243;50.888;4.724;2023-07-16T15:56:32;21.60;99.90
25302;DHT22;13243;50.888;4.724;2023-07-16T16:01:35;21.30;99.90
25302;DHT22;13243;50.888;4.724;2023-07-16T16:06:37;21.10;99.90
25302;DHT22;13243;50.888;4.724;2023-07-16T16:11:40;21.20;99.90
25302;DHT22;13243;50.888;4.724;2023-07-16T16:16:42;21.20;99.90
25302;DHT22;13243;50.888;4.724;2023-07-16T16:22:05;21.70;99.90
25302;DHT22;13243;50.888;4.724;2023-07-16T16:27:08;23.10;99.90
25302;DHT22;13243;50.888;4.724;2023-07-16T16:32:10;23.80;99.90
25302;DHT22;13243;50.888;4.724;2023-07-16T16:37:12;23.10;99.90
25302;DHT22;13243;50.888;4.724;2023-07-16T16:42:14;22.90;99.90
25302;DHT22;13243;50.888;4.724;2023-07-16T16:47:16;22.70;99.90
25302;DHT22;13243;50.888;4.724;2023-07-16T16:52:18;22.20;99.90
25302;DHT22;13243;50.888;4.724;2023-07-16T16:57:20;22.00;99.90
25302;DHT22;13243;50.888;4.724;2023-07-16T17:02:22;21.80;99.90
25302;DHT22;13243;50.888;4.724;2023-07-16T17:07:25;21.30;99.90
25302;DHT22;13243;50.888;4.724;2023-07-16T17:12:27;20.40;99.90
25302;DHT22;13243;50.888;4.724;2023-07-16T17:17:29;19.70;99.90
25302;DHT22;13243;50.888;4.724;2023-07-16T17:22:31;20.00;99.90
25302;DHT22;13243;50.888;4.724;2023-07-16T17:27:35;20.10;99.90
25302;DHT22;13243;50.888;4.724;2023-07-16T17:32:37;20.20;99.90
25302;DHT22;13243;50.888;4.724;2023-07-16T17:37:39;20.30;99.90
25302;DHT22;13243;50.888;4.724;2023-07-16T17:42:41;20.20;99.90
25302;DHT22;13243;50.888;4.724;2023-07-16T17:47:43;20.20;99.90
25302;DHT22;13243;50.888;4.724;2023-07-16T17:52:45;20.20;99.90
25302;DHT22;13243;50.888;4.724;2023-07-16T17:57:47;20.30;99.90
25302;DHT22;13243;50.888;4.724;2023-07-16T18:02:49;20.30;99.90
25302;DHT22;13243;50.888;4.724;2023-07-16T18:07:52;20.30;99.90
25302;DHT22;13243;50.888;4.724;2023-07-16T18:12:54;20.10;99.90
25302;DHT22;13243;50.888;4.724;2023-07-16T18:17:56;20.00;99.90
25302;DHT22;13243;50.888;4.724;2023-07-16T18:22:58;20.00;99.90
25302;DHT22;13243;50.888;4.724;2023-07-16T18:28:00;20.00;99.90
25302;DHT22;13243;50.888;4.724;2023-07-16T18:33:02;19.90;99.90
25302;DHT22;13243;50.888;4.724;2023-07-16T18:38:05;19.80;99.90
25302;DHT22;13243;50.888;4.724;2023-07-16T18:43:07;19.80;99.90
25302;DHT22;13243;50.888;4.724;2023-07-16T18:48:09;19.80;99.90
25302;DHT22;13243;50.888;4.724;2023-07-16T18:53:11;19.70;99.90
25302;DHT22;13243;50.888;4.724;2023-07-16T18:58:13;19.80;99.90
25302;DHT22;13243;50.888;4.724;2023-07-16T19:03:15;19.80;99.90
25302;DHT22;13243;50.888;4.724;2023-07-16T19:08:17;19.80;99.90
25302;DHT22;13243;50.888;4.724;2023-07-16T19:13:20;19.80;99.90
25302;DHT22;13243;50.888;4.724;2023-07-16T19:18:23;19.60;99.90
25302;DHT22;13243;50.888;4.724;2023-07-16T19:23:25;19.70;99.90
25302;DHT22;13243;50.888;4.724;2023-07-16T19:28:28;19.60;99.90
25302;DHT22;13243;50.888;4.724;2023-07-16T19:33:29;19.50;99.90
25302;DHT22;13243;50.888;4.724;2023-07-16T19:38:32;19.50;99.90
25302;DHT22;13243;50.888;4.724;2023-07-16T19:43:34;19.40;99.90
25302;DHT22;13243;50.888;4.724;2023-07-16T19:48:36;19.40;99.90
25302;DHT22;13243;50.888;4.724;2023-07-16T19:53:38;19.30;99.90
25302;DHT22;13243;50.888;4.724;2023-07-16T19:58:40;19.30;99.90
25302;DHT22;13243;50.888;4.724;2023-07-16T20:03:42;19.30;99.90
25302;DHT22;13243;50.888;4.724;2023-07-16T20:08:44;19.50;99.90
25302;DHT22;13243;50.888;4.724;2023-07-16T20:13:46;19.50;99.90
25302;DHT22;13243;50.888;4.724;2023-07-16T20:18:48;19.30;99.90
25302;DHT22;13243;50.888;4.724;2023-07-16T20:23:50;19.40;99.90
25302;DHT22;13243;50.888;4.724;2023-07-16T20:28:52;19.30;99.90
25302;DHT22;13243;50.888;4.724;2023-07-16T20:33:54;19.20;99.90
25302;DHT22;13243;50.888;4.724;2023-07-16T20:38:56;19.00;99.90
25302;DHT22;13243;50.888;4.724;2023-07-16T20:43:58;19.10;99.90
25302;DHT22;13243;50.888;4.724;2023-07-16T20:48:59;19.10;99.90
25302;DHT22;13243;50.888;4.724;2023-07-16T20:54:02;19.10;99.90
25302;DHT22;13243;50.888;4.724;2023-07-16T20:59:04;19.00;99.90
25302;DHT22;13243;50.888;4.724;2023-07-16T21:04:06;19.10;99.90
25302;DHT22;13243;50.888;4.724;2023-07-16T21:09:08;19.00;99.90
25302;DHT22;13243;50.888;4.724;2023-07-16T21:14:10;19.10;99.90
25302;DHT22;13243;50.888;4.724;2023-07-16T21:19:13;19.10;99.90
25302;DHT22;13243;50.888;4.724;2023-07-16T21:24:15;19.00;99.90
25302;DHT22;13243;50.888;4.724;2023-07-16T21:29:16;18.90;99.90
25302;DHT22;13243;50.888;4.724;2023-07-16T21:34:18;19.00;99.90
25302;DHT22;13243;50.888;4.724;2023-07-16T21:39:20;18.90;99.90
25302;DHT22;13243;50.888;4.724;2023-07-16T21:44:22;18.90;99.90
25302;DHT22;13243;50.888;4.724;2023-07-16T21:49:24;18.70;99.90
25302;DHT22;13243;50.888;4.724;2023-07-16T21:54:27;18.60;99.90
25302;DHT22;13243;50.888;4.724;2023-07-16T21:59:29;18.70;99.90
25302;DHT22;13243;50.888;4.724;2023-07-16T22:04:31;18.50;99.90
25302;DHT22;13243;50.888;4.724;2023-07-16T22:09:33;18.50;99.90
25302;DHT22;13243;50.888;4.724;2023-07-16T22:14:35;18.50;99.90
25302;DHT22;13243;50.888;4.724;2023-07-16T22:19:38;18.30;99.90
25302;DHT22;13243;50.888;4.724;2023-07-16T22:24:40;18.40;99.90
25302;DHT22;13243;50.888;4.724;2023-07-16T22:29:42;18.40;99.90
25302;DHT22;13243;50.888;4.724;2023-07-16T22:34:44;18.40;99.90
25302;DHT22;13243;50.888;4.724;2023-07-16T22:39:46;18.30;99.90
25302;DHT22;13243;50.888;4.724;2023-07-16T22:44:48;18.20;99.90
25302;DHT22;13243;50.888;4.724;2023-07-16T22:49:50;18.20;99.90
25302;DHT22;13243;50.888;4.724;2023-07-16T22:54:52;18.20;99.90
25302;DHT22;13243;50.888;4.724;2023-07-16T22:59:55;18.20;99.90
25302;DHT22;13243;50.888;4.724;2023-07-16T23:04:57;18.10;99.90
25302;DHT22;13243;50.888;4.724;2023-07-16T23:09:59;18.00;99.90
25302;DHT22;13243;50.888;4.724;2023-07-16T23:15:01;18.10;99.90
25302;DHT22;13243;50.888;4.724;2023-07-16T23:20:03;18.00;99.90
25302;DHT22;13243;50.888;4.724;2023-07-16T23:25:10;18.00;99.90
25302;DHT22;13243;50.888;4.724;2023-07-16T23:30:12;17.90;99.90
25302;DHT22;13243;50.888;4.724;2023-07-16T23:35:14;17.90;99.90
25302;DHT22;13243;50.888;4.724;2023-07-16T23:40:16;17.80;99.90
25302;DHT22;13243;50.888;4.724;2023-07-16T23:45:18;17.80;99.90
25302;DHT22;13243;50.888;4.724;2023-07-16T23:50:20;17.70;99.90
25302;DHT22;13243;50.888;4.724;2023-07-16T23:55:23;17.80;99.90
